Time;durP1;ratioP1;P1;durP2;ratioP2;P2;SDS_P1;SDS_P2;PMS_P1;PMS_P2;Temp;Humidity;BMP_temperature;BMP_pressure;BME280_temperature;BME280_humidity;BME280_pressure;Samples;Min_cycle;Max_cycle;Signal;HPM_P1;HPM_P2
2023/09/10 05:16:15;;;;;;;;;;;;;;;24.66;59.33;97130.50;4248659;27;10384;-64
2023/09/10 05:18:18;;;;;;;;;;;;;;;24.90;58.85;97126.06;4255905;27;5690;-64
2023/09/10 05:20:20;;;;;;;;;;;;;;;25.12;58.01;97127.63;4249952;27;5850;-63
2023/09/10 05:22:23;;;;;;;;;;;;;;;25.25;57.80;97121.59;4257097;27;5671;-64
2023/09/10 05:24:26;;;;;;;;;;;;;;;25.40;57.40;97131.56;4257126;27;5655;-64
2023/09/10 05:26:29;;;;;;;;;;;;;;;25.47;57.10;97137.44;4263174;27;5835;-64
2023/09/10 05:28:31;;;;;;;;;;;;;;;25.55;56.79;97134.16;4248299;27;5871;-64
2023/09/10 05:30:37;;;;;;;;;;;;;;;25.62;56.75;97123.03;4251905;27;5827;-64
2023/09/10 05:32:41;;;;;;;;;;;;;;;25.70;56.85;97125.16;4252822;27;6343;-64
2023/09/10 05:34:44;;;;;;;;;;;;;;;25.72;56.76;97129.22;4248076;27;6043;-64
2023/09/10 05:36:48;;;;;;;;;;;;;;;25.77;56.38;97133.78;4255350;27;5083;-64
2023/09/10 05:38:52;;;;;;;;;;;;;;;25.82;56.23;97131.00;4247535;27;5826;-64
2023/09/10 05:41:00;;;;;;;;;;;;;;;25.85;56.65;97133.19;4254555;27;7803;-64
2023/09/10 05:43:04;;;;;;;;;;;;;;;25.87;56.34;97141.81;4257996;27;5907;-64
2023/09/10 05:45:09;;;;;;;;;;;;;;;25.90;56.41;97141.25;4250305;27;5654;-64
2023/09/10 05:47:11;;;;;;;;;;;;;;;25.92;56.40;97140.97;4248208;27;5633;-64
2023/09/10 05:49:15;;;;;;;;;;;;;;;25.95;56.16;97145.84;4252272;27;5819;-64
2023/09/10 05:51:18;;;;;;;;;;;;;;;25.96;56.38;97156.38;4253981;27;5800;-64
2023/09/10 05:53:20;;;;;;;;;;;;;;;25.99;56.09;97147.69;4248330;27;5729;-64
2023/09/10 05:55:24;;;;;;;;;;;;;;;26.01;56.01;97152.81;4247311;27;6418;-64
2023/09/10 05:57:26;;;;;;;;;;;;;;;26.01;55.99;97159.03;4248015;27;5634;-64
2023/09/10 05:59:30;;;;;;;;;;;;;;;26.01;55.97;97158.22;4250469;27;5740;-64
2023/09/10 06:01:33;;;;;;;;;;;;;;;26.02;55.98;97163.38;4253568;27;5643;-64
2023/09/10 06:03:36;;;;;;;;;;;;;;;26.02;55.39;97171.50;4247873;27;5076;-64
2023/09/10 06:05:40;;;;;;;;;;;;;;;26.00;55.21;97170.97;4240451;27;6721;-64
2023/09/10 06:07:44;;;;;;;;;;;;;;;25.98;54.91;97170.44;4240892;27;5675;-65
2023/09/10 06:09:46;;;;;;;;;;;;;;;25.98;54.77;97175.06;4247383;27;5088;-65
2023/09/10 06:11:49;;;;;;;;;;;;;;;25.97;54.90;97168.84;4244231;27;5765;-64
2023/09/10 06:13:52;;;;;;;;;;;;;;;25.99;54.93;97168.53;4253296;27;5679;-64
2023/09/10 06:15:55;;;;;;;;;;;;;;;25.99;54.43;97166.66;4239090;27;5634;-64
2023/09/10 06:17:58;;;;;;;;;;;;;;;25.97;54.48;97173.44;4238583;27;5638;-64
2023/09/10 06:20:02;;;;;;;;;;;;;;;25.96;54.38;97171.81;4236696;27;6365;-64
2023/09/10 06:22:07;;;;;;;;;;;;;;;25.97;54.33;97168.84;4233057;27;5666;-64
2023/09/10 06:24:09;;;;;;;;;;;;;;;26.00;54.25;97172.88;4237009;27;5759;-64
2023/09/10 06:26:13;;;;;;;;;;;;;;;26.01;54.37;97169.06;4235618;27;5677;-65
2023/09/10 06:28:16;;;;;;;;;;;;;;;26.05;54.24;97181.78;4238721;27;5702;-63
2023/09/10 06:30:19;;;;;;;;;;;;;;;26.04;54.04;97174.72;4237189;27;5653;-64
2023/09/10 06:32:22;;;;;;;;;;;;;;;26.07;53.79;97181.50;4229668;28;5800;-63
2023/09/10 06:34:25;;;;;;;;;;;;;;;26.06;54.05;97183.41;4239326;27;5804;-64
2023/09/10 06:36:28;;;;;;;;;;;;;;;26.08;53.80;97178.50;4235752;27;5729;-63
2023/09/10 06:38:32;;;;;;;;;;;;;;;26.08;53.89;97180.41;4230502;27;7188;-64
2023/09/10 06:40:36;;;;;;;;;;;;;;;26.10;54.07;97180.91;4227233;27;5878;-63
2023/09/10 06:42:39;;;;;;;;;;;;;;;26.13;53.73;97172.22;4228129;27;5856;-63
2023/09/10 06:44:43;;;;;;;;;;;;;;;26.12;53.60;97176.81;4230981;27;5755;-63
2023/09/10 06:46:46;;;;;;;;;;;;;;;26.13;53.88;97170.31;4227059;27;5717;-64
2023/09/10 06:48:48;;;;;;;;;;;;;;;26.08;53.52;97169.56;4231990;27;5653;-63
2023/09/10 06:50:50;;;;;;;;;;;;;;;26.05;53.44;97179.06;4232948;27;5797;-64
2023/09/10 06:52:53;;;;;;;;;;;;;;;26.10;53.55;97180.91;4232720;27;5620;-64
2023/09/10 06:54:57;;;;;;;;;;;;;;;26.12;53.37;97178.72;4230151;27;5768;-64
2023/09/10 06:57:01;;;;;;;;;;;;;;;26.13;53.44;97183.88;4229246;27;5757;-64
2023/09/10 06:59:04;;;;;;;;;;;;;;;26.15;53.41;97175.44;4230508;27;5666;-65
2023/09/10 07:01:08;;;;;;;;;;;;;;;26.18;53.45;97179.50;4228752;27;5801;-64
2023/09/10 07:03:13;;;;;;;;;;;;;;;26.20;53.24;97178.13;4222698;27;7156;-65
2023/09/10 07:05:16;;;;;;;;;;;;;;;26.21;53.45;97178.94;4229213;27;5750;-65
2023/09/10 07:07:19;;;;;;;;;;;;;;;26.20;53.24;97183.56;4226923;27;5793;-64
2023/09/10 07:09:24;;;;;;;;;;;;;;;26.20;53.25;97182.75;4228432;27;5825;-63
2023/09/10 07:11:28;;;;;;;;;;;;;;;26.21;53.18;97184.34;4230643;27;6295;-64
2023/09/10 07:13:31;;;;;;;;;;;;;;;26.23;53.08;97176.75;4230055;27;5829;-65
2023/09/10 07:15:34;;;;;;;;;;;;;;;26.17;53.18;97180.59;4233399;27;5738;-63
2023/09/10 07:17:37;;;;;;;;;;;;;;;26.17;53.29;97183.31;4231467;27;5650;-63
2023/09/10 07:19:40;;;;;;;;;;;;;;;26.20;53.24;97182.75;4231248;27;5647;-63
2023/09/10 07:21:43;;;;;;;;;;;;;;;26.23;53.00;97187.59;4227817;28;5679;-63
2023/09/10 07:23:47;;;;;;;;;;;;;;;26.26;53.04;97187.00;4239333;27;5649;-63
2023/09/10 07:25:50;;;;;;;;;;;;;;;26.27;53.19;97188.63;4237396;27;5757;-63
2023/09/10 07:27:54;;;;;;;;;;;;;;;26.30;52.92;97188.09;4227272;28;5750;-63
2023/09/10 07:29:57;;;;;;;;;;;;;;;26.32;53.12;97183.97;4225734;28;5651;-63
2023/09/10 07:32:00;;;;;;;;;;;;;;;26.34;53.04;97189.13;4222679;27;5758;-63
2023/09/10 07:34:04;;;;;;;;;;;;;;;26.35;52.90;97185.31;4234976;27;5885;-64
2023/09/10 07:36:07;;;;;;;;;;;;;;;26.36;53.09;97185.06;4233426;28;5741;-63
2023/09/10 07:38:10;;;;;;;;;;;;;;;26.35;52.96;97186.13;4227108;28;5646;-63
2023/09/10 07:40:14;;;;;;;;;;;;;;;26.34;52.82;97189.13;4226536;28;5787;-63
2023/09/10 07:42:17;;;;;;;;;;;;;;;26.34;52.79;97181.78;4229128;27;5667;-64
2023/09/10 07:44:21;;;;;;;;;;;;;;;26.37;53.02;97185.84;4220068;28;5795;-63
2023/09/10 07:46:25;;;;;;;;;;;;;;;26.38;53.02;97185.56;4227729;28;5662;-63
2023/09/10 07:48:28;;;;;;;;;;;;;;;26.39;52.81;97187.22;4230317;28;5833;-64
2023/09/10 07:50:31;;;;;;;;;;;;;;;26.42;52.79;97185.84;4226385;28;5780;-64
2023/09/10 07:52:34;;;;;;;;;;;;;;;26.44;52.76;97194.47;4229619;28;7741;-64
2023/09/10 07:54:37;;;;;;;;;;;;;;;26.47;53.16;97188.47;4233188;28;5662;-64
2023/09/10 07:56:40;;;;;;;;;;;;;;;26.48;52.83;97187.38;4231318;28;5729;-64
2023/09/10 07:58:42;;;;;;;;;;;;;;;26.47;52.77;97180.34;4233347;28;5770;-64
2023/09/10 08:00:47;;;;;;;;;;;;;;;26.47;53.11;97185.78;4234018;28;5679;-64
2023/09/10 08:02:50;;;;;;;;;;;;;;;26.48;52.96;97179.25;4231148;28;6966;-64
2023/09/10 08:04:53;;;;;;;;;;;;;;;26.48;52.76;97179.25;4233774;27;5712;-64
2023/09/10 08:06:56;;;;;;;;;;;;;;;26.50;52.86;97176.25;4233506;27;5798;-64
2023/09/10 08:08:58;;;;;;;;;;;;;;;26.51;52.72;97180.59;4225660;27;5722;-64
2023/09/10 08:11:01;;;;;;;;;;;;;;;26.54;52.78;97182.75;4225871;28;5757;-64
2023/09/10 08:13:04;;;;;;;;;;;;;;;26.56;52.66;97186.78;4232601;28;6347;-64
2023/09/10 08:15:08;;;;;;;;;;;;;;;26.60;52.63;97192.41;4240755;27;6314;-64
2023/09/10 08:17:13;;;;;;;;;;;;;;;26.62;52.99;97199.19;4233100;27;5650;-64
2023/09/10 08:19:16;;;;;;;;;;;;;;;26.62;52.75;97201.91;4231408;27;5777;-64
2023/09/10 08:21:20;;;;;;;;;;;;;;;26.60;52.94;97193.22;4232201;28;5651;-69
2023/09/10 08:23:22;;;;;;;;;;;;;;;26.60;52.99;97193.22;4236199;27;5544;-64
2023/09/10 08:25:25;;;;;;;;;;;;;;;26.58;52.82;97190.00;4234262;27;5642;-62
2023/09/10 08:27:28;;;;;;;;;;;;;;;26.60;53.21;97193.22;4225175;27;5773;-62
2023/09/10 08:29:31;;;;;;;;;;;;;;;26.60;53.01;97193.22;4230409;27;6580;-62
2023/09/10 08:31:34;;;;;;;;;;;;;;;26.61;53.31;97194.84;4223367;27;5850;-64
2023/09/10 08:33:38;;;;;;;;;;;;;;;26.62;53.05;97196.50;4228869;27;5094;-62
2023/09/10 08:35:47;;;;;;;;;;;;;;;26.63;53.15;97192.69;4230806;27;5650;-66
2023/09/10 08:37:49;;;;;;;;;;;;;;;26.66;53.47;97202.94;4235294;27;6312;-66
2023/09/10 08:39:53;;;;;;;;;;;;;;;26.67;53.19;97204.56;4229876;27;5667;-67
2023/09/10 08:42:03;;;;;;;;;;;;;;;26.67;53.24;97207.28;4232372;27;5753;-66
2023/09/10 08:44:10;;;;;;;;;;;;;;;26.65;53.32;97198.63;4217822;27;5809;-64
2023/09/10 08:46:13;;;;;;;;;;;;;;;26.67;53.44;97196.41;4219490;28;5824;-64
2023/09/10 08:48:19;;;;;;;;;;;;;;;26.68;53.59;97189.91;4226642;28;6487;-65
2023/09/10 08:50:25;;;;;;;;;;;;;;;26.69;53.62;97180.66;4223643;28;5108;-65
2023/09/10 08:52:28;;;;;;;;;;;;;;;26.70;53.47;97181.47;4223572;27;5638;-65
2023/09/10 08:54:31;;;;;;;;;;;;;;;26.72;53.54;97182.00;4224410;28;5753;-65
2023/09/10 08:56:35;;;;;;;;;;;;;;;26.74;53.61;97179.03;4223177;27;5760;-65
2023/09/10 08:58:39;;;;;;;;;;;;;;;26.74;53.55;97174.41;4221547;28;5686;-65
2023/09/10 09:00:43;;;;;;;;;;;;;;;26.77;53.66;97173.00;4227412;28;5654;-65
2023/09/10 09:02:46;;;;;;;;;;;;;;;26.80;53.60;97175.13;4217117;28;5770;-65
2023/09/10 09:04:50;;;;;;;;;;;;;;;26.81;53.61;97168.63;4227283;27;5703;-65
2023/09/10 09:06:58;;;;;;;;;;;;;;;26.80;53.67;97170.53;4228457;28;5808;-65
2023/09/10 09:09:05;;;;;;;;;;;;;;;26.82;53.51;97172.94;4225382;27;5758;-65
2023/09/10 09:11:09;;;;;;;;;;;;;;;26.83;53.50;97172.66;4225403;28;5873;-65
2023/09/10 09:13:13;;;;;;;;;;;;;;;26.86;53.39;97174.00;4228135;28;5827;-65
2023/09/10 09:15:17;;;;;;;;;;;;;;;26.84;53.47;97177.00;4219975;28;5683;-65
2023/09/10 09:17:20;;;;;;;;;;;;;;;26.84;53.46;97170.75;4221459;28;5661;-65
2023/09/10 09:19:28;;;;;;;;;;;;;;;26.85;53.36;97166.97;4225954;27;5741;-65
2023/09/10 09:21:31;;;;;;;;;;;;;;;26.86;53.33;97165.88;4223998;27;5813;-65
2023/09/10 09:23:42;;;;;;;;;;;;;;;26.86;53.12;97163.16;4225256;28;5647;-65
2023/09/10 09:25:45;;;;;;;;;;;;;;;26.88;53.31;97160.94;4221610;27;5754;-65
2023/09/10 09:27:48;;;;;;;;;;;;;;;26.90;53.21;97162.28;4223610;27;5773;-65
2023/09/10 09:29:52;;;;;;;;;;;;;;;26.92;53.04;97151.13;4220891;28;5807;-65
2023/09/10 09:31:54;;;;;;;;;;;;;;;26.94;52.95;97159.78;4217590;28;5657;-64
2023/09/10 09:33:57;;;;;;;;;;;;;;;26.96;52.88;97152.19;4220887;28;5761;-65
2023/09/10 09:36:07;;;;;;;;;;;;;;;26.97;53.12;97164.66;4224046;27;5826;-65
2023/09/10 09:38:11;;;;;;;;;;;;;;;26.97;52.98;97159.22;4222830;28;5667;-64
2023/09/10 09:40:21;;;;;;;;;;;;;;;26.98;52.90;97160.84;4227874;27;5111;-62
2023/09/10 09:42:24;;;;;;;;;;;;;;;27.00;52.76;97153.22;4220255;27;5795;-63
2023/09/10 09:44:27;;;;;;;;;;;;;;;27.01;52.79;97146.69;4224355;27;5738;-63
2023/09/10 09:46:34;;;;;;;;;;;;;;;27.02;53.08;97155.66;4225043;28;5797;-63
2023/09/10 09:48:38;;;;;;;;;;;;;;;27.00;52.62;97147.78;4218542;28;5635;-63
2023/09/10 09:50:41;;;;;;;;;;;;;;;27.02;52.63;97145.63;4224397;28;5745;-63
2023/09/10 09:52:51;;;;;;;;;;;;;;;27.03;52.79;97146.41;4223591;27;5752;-62
2023/09/10 09:54:54;;;;;;;;;;;;;;;27.04;52.55;97145.31;4231291;27;5738;-62
2023/09/10 09:56:59;;;;;;;;;;;;;;;27.02;52.46;97140.19;4233537;27;5762;-63
2023/09/10 09:59:02;;;;;;;;;;;;;;;27.00;52.35;97142.34;4225619;27;5642;-67
2023/09/10 10:01:07;;;;;;;;;;;;;;;27.00;52.46;97139.66;4227721;27;5623;-64
2023/09/10 10:03:10;;;;;;;;;;;;;;;27.04;52.46;97131.75;4223777;27;5823;-64
2023/09/10 10:05:13;;;;;;;;;;;;;;;27.05;52.49;97138.78;4230112;27;5662;-64
2023/09/10 10:07:17;;;;;;;;;;;;;;;27.05;52.41;97139.59;4234196;27;5654;-64
2023/09/10 10:09:35;;;;;;;;;;;;;;;27.06;52.44;97133.06;4225339;27;5856;-64
2023/09/10 10:11:39;;;;;;;;;;;;;;;27.09;52.38;97139.84;4228018;27;5634;-66
2023/09/10 10:13:43;;;;;;;;;;;;;;;27.10;52.43;97139.56;4223466;27;5713;-64
2023/09/10 10:15:48;;;;;;;;;;;;;;;27.11;52.57;97138.44;4230387;28;5765;-64
2023/09/10 10:17:54;;;;;;;;;;;;;;;27.12;52.57;97134.63;4233920;27;5722;-64
2023/09/10 10:19:58;;;;;;;;;;;;;;;27.13;52.53;97136.25;4226361;27;5052;-67
2023/09/10 10:22:04;;;;;;;;;;;;;;;27.12;52.62;97126.50;4225404;27;5745;-67
2023/09/10 10:24:08;;;;;;;;;;;;;;;27.14;52.74;97131.63;4232224;27;5621;-67
2023/09/10 10:26:12;;;;;;;;;;;;;;;27.14;52.70;97132.44;4224328;27;5649;-67
2023/09/10 10:28:16;;;;;;;;;;;;;;;27.16;52.84;97126.72;4229260;27;5675;-65
2023/09/10 10:30:22;;;;;;;;;;;;;;;27.17;52.75;97128.31;4226828;27;5765;-65
2023/09/10 10:32:35;;;;;;;;;;;;;;;27.16;52.55;97124.81;4232513;27;5805;-65
2023/09/10 10:34:41;;;;;;;;;;;;;;;27.18;52.66;97132.66;4228148;27;5791;-66
2023/09/10 10:36:51;;;;;;;;;;;;;;;27.18;52.43;97125.34;4232228;27;5728;-65
2023/09/10 10:38:56;;;;;;;;;;;;;;;27.17;52.24;97115.56;4228395;27;5906;-65
2023/09/10 10:41:04;;;;;;;;;;;;;;;27.19;52.33;97124.25;4225565;27;7714;-64
2023/09/10 10:43:13;;;;;;;;;;;;;;;27.21;52.34;97118.53;4223772;27;5716;-63
2023/09/10 10:45:17;;;;;;;;;;;;;;;27.22;52.19;97114.69;4227121;27;5753;-64
2023/09/10 10:47:25;;;;;;;;;;;;;;;27.22;52.30;97115.50;4228245;27;5710;-64
2023/09/10 10:49:30;;;;;;;;;;;;;;;27.25;51.96;97105.97;4228935;27;5776;-64
2023/09/10 10:51:38;;;;;;;;;;;;;;;27.26;52.11;97102.97;4224948;27;5852;-63
2023/09/10 10:53:58;;;;;;;;;;;;;;;27.28;52.06;97099.94;4225091;27;5728;-64
2023/09/10 10:56:03;;;;;;;;;;;;;;;27.29;51.99;97104.28;4235539;27;5948;-63
2023/09/10 10:58:07;;;;;;;;;;;;;;;27.32;52.05;97111.03;4232433;27;5791;-63
2023/09/10 11:00:11;;;;;;;;;;;;;;;27.34;52.04;97103.41;4233753;27;5796;-64
2023/09/10 11:02:21;;;;;;;;;;;;;;;27.35;51.91;97102.31;4223117;27;5729;-64
2023/09/10 11:04:30;;;;;;;;;;;;;;;27.37;51.83;97102.81;4226416;27;5891;-63
2023/09/10 11:06:33;;;;;;;;;;;;;;;27.36;51.59;97101.19;4232001;27;5777;-63
2023/09/10 11:08:37;;;;;;;;;;;;;;;27.37;51.50;97094.66;4229933;27;5857;-64
2023/09/10 11:10:42;;;;;;;;;;;;;;;27.39;51.59;97092.47;4229596;27;5659;-64
2023/09/10 11:13:06;;;;;;;;;;;;;;;27.39;51.39;97089.75;4226245;27;5907;-64
2023/09/10 11:15:12;;;;;;;;;;;;;;;27.42;51.21;97083.75;4231136;27;5740;-64
2023/09/10 11:17:21;;;;;;;;;;;;;;;27.43;51.20;97079.94;4223478;27;5657;-64
2023/09/10 11:19:50;;;;;;;;;;;;;;;27.45;51.01;97066.88;4224206;27;5851;-65
2023/09/10 11:22:03;;;;;;;;;;;;;;;27.44;50.82;97063.34;4212417;27;6959;-67
2023/09/10 11:24:26;;;;;;;;;;;;;;;27.45;50.58;97072.31;4224911;27;5880;-64
2023/09/10 11:26:29;;;;;;;;;;;;;;;27.46;50.58;97072.00;4219194;27;5118;-64
2023/09/10 11:28:39;;;;;;;;;;;;;;;27.47;50.47;97068.19;4224529;27;5868;-67
2023/09/10 11:30:42;;;;;;;;;;;;;;;27.47;50.19;97070.91;4227723;27;5674;-67
2023/09/10 11:32:44;;;;;;;;;;;;;;;27.49;50.16;97067.88;4227486;27;5107;-64
2023/09/10 11:34:51;;;;;;;;;;;;;;;27.50;50.08;97072.22;4226622;27;5125;-64
2023/09/10 11:36:56;;;;;;;;;;;;;;;27.51;49.87;97062.97;4223948;27;5762;-63
2023/09/10 11:38:58;;;;;;;;;;;;;;;27.51;50.13;97065.66;4224201;27;5858;-67
2023/09/10 11:41:01;;;;;;;;;;;;;;;27.51;49.83;97066.47;4226652;27;5133;-67
2023/09/10 11:43:05;;;;;;;;;;;;;;;27.51;49.76;97061.03;4224877;27;5649;-67
2023/09/10 11:45:10;;;;;;;;;;;;;;;27.51;49.80;97063.75;4230237;27;5905;-67
2023/09/10 11:47:15;;;;;;;;;;;;;;;27.53;49.56;97058.06;4225584;27;5776;-67
2023/09/10 11:49:18;;;;;;;;;;;;;;;27.54;49.55;97059.66;4220121;27;5720;-67
2023/09/10 11:51:22;;;;;;;;;;;;;;;27.53;49.45;97053.44;4222527;27;5825;-67
2023/09/10 11:53:25;;;;;;;;;;;;;;;27.56;49.42;97057.47;4229007;27;5651;-66
2023/09/10 11:55:28;;;;;;;;;;;;;;;27.56;49.35;97049.31;4224828;27;5869;-67
2023/09/10 11:57:31;;;;;;;;;;;;;;;27.54;49.32;97048.81;4215342;27;5639;-67
2023/09/10 11:59:34;;;;;;;;;;;;;;;27.56;49.35;97054.75;4217213;27;5108;-67
2023/09/10 12:01:37;;;;;;;;;;;;;;;27.57;49.41;97053.66;4222033;27;5847;-68
2023/09/10 12:03:41;;;;;;;;;;;;;;;27.59;49.35;97042.47;4220829;27;5758;-66
2023/09/10 12:05:45;;;;;;;;;;;;;;;27.59;49.02;97037.84;4222471;27;5646;-67
2023/09/10 12:07:49;;;;;;;;;;;;;;;27.61;49.24;97038.38;4218549;27;5742;-67
2023/09/10 12:09:52;;;;;;;;;;;;;;;27.63;49.14;97038.88;4222697;27;6083;-66
2023/09/10 12:11:58;;;;;;;;;;;;;;;27.64;48.99;97029.63;4216583;27;7751;-67
2023/09/10 12:14:02;;;;;;;;;;;;;;;27.64;49.12;97031.56;4221692;27;5679;-66
2023/09/10 12:16:30;;;;;;;;;;;;;;;27.66;49.08;97035.59;4225281;27;5880;-62
2023/09/10 12:18:34;;;;;;;;;;;;;;;27.66;49.09;97032.91;4217277;27;5738;-64
2023/09/10 12:20:38;;;;;;;;;;;;;;;27.68;49.22;97027.97;4224419;27;5645;-65
2023/09/10 12:22:41;;;;;;;;;;;;;;;27.68;49.01;97027.97;4221729;27;5820;-64
2023/09/10 12:24:46;;;;;;;;;;;;;;;27.68;48.91;97025.25;4224352;27;5922;-64
2023/09/10 12:26:48;;;;;;;;;;;;;;;27.69;49.07;97026.84;4216110;27;5885;-64
2023/09/10 12:28:52;;;;;;;;;;;;;;;27.70;49.02;97020.31;4223842;27;5638;-65
2023/09/10 12:30:55;;;;;;;;;;;;;;;27.71;48.96;97021.13;4226524;27;5845;-63
2023/09/10 12:32:58;;;;;;;;;;;;;;;27.71;48.82;97016.50;4214143;27;5842;-66
2023/09/10 12:35:01;;;;;;;;;;;;;;;27.73;49.02;97014.28;4230246;27;7729;-66
2023/09/10 12:37:05;;;;;;;;;;;;;;;27.75;49.05;97011.28;4233840;27;5740;-66
2023/09/10 12:39:18;;;;;;;;;;;;;;;27.75;48.84;97006.66;4224647;27;5728;-65
2023/09/10 12:41:23;;;;;;;;;;;;;;;27.76;48.96;97002.84;4215311;27;5873;-65
2023/09/10 12:43:27;;;;;;;;;;;;;;;27.77;48.85;97004.47;4219950;27;5642;-66
2023/09/10 12:45:29;;;;;;;;;;;;;;;27.78;48.83;97008.78;4221277;27;5642;-65
2023/09/10 12:47:32;;;;;;;;;;;;;;;27.78;48.91;97000.63;4222992;27;5748;-65
2023/09/10 12:49:35;;;;;;;;;;;;;;;27.80;48.86;97003.84;4232759;27;5771;-64
2023/09/10 12:51:38;;;;;;;;;;;;;;;27.81;48.45;97001.94;4227053;27;5758;-64
2023/09/10 12:53:41;;;;;;;;;;;;;;;27.80;48.60;97003.84;4228329;27;5627;-63
2023/09/10 12:55:45;;;;;;;;;;;;;;;27.82;48.56;96998.91;4229257;27;5620;-63
2023/09/10 12:57:53;;;;;;;;;;;;;;;27.83;48.64;97000.53;4224482;27;7731;-63
2023/09/10 12:59:57;;;;;;;;;;;;;;;27.82;48.68;96990.78;4222961;27;5773;-62
2023/09/10 13:02:03;;;;;;;;;;;;;;;27.83;48.63;96995.09;4219056;27;5701;-63
2023/09/10 13:04:07;;;;;;;;;;;;;;;27.83;48.65;96991.56;4230809;27;5794;-63
2023/09/10 13:06:11;;;;;;;;;;;;;;;27.83;48.66;96995.09;4222960;27;5866;-62
2023/09/10 13:08:14;;;;;;;;;;;;;;;27.83;48.60;96981.50;4220890;27;5761;-63
2023/09/10 13:10:17;;;;;;;;;;;;;;;27.85;48.90;96973.88;4222994;27;7684;-65
2023/09/10 13:12:22;;;;;;;;;;;;;;;27.85;48.75;96976.59;4221226;27;5822;-64
2023/09/10 13:14:26;;;;;;;;;;;;;;;27.87;48.81;96975.50;4222715;27;5781;-64
2023/09/10 13:16:29;;;;;;;;;;;;;;;27.89;48.90;96974.09;4222623;27;5641;-64
2023/09/10 13:18:32;;;;;;;;;;;;;;;27.91;48.90;96979.22;4221591;27;5967;-65
2023/09/10 13:20:36;;;;;;;;;;;;;;;27.92;48.72;96980.81;4234970;27;5731;-66
2023/09/10 13:22:39;;;;;;;;;;;;;;;27.93;48.96;96975.09;4213329;27;5921;-71
2023/09/10 13:24:42;;;;;;;;;;;;;;;27.94;48.65;96984.03;4218353;27;5798;-83
2023/09/10 13:26:45;;;;;;;;;;;;;;;27.94;48.85;96975.91;4226701;27;5641;-69
2023/09/10 13:28:48;;;;;;;;;;;;;;;27.95;48.83;96972.06;4227452;27;5663;-70
2023/09/10 13:30:53;;;;;;;;;;;;;;;27.95;48.81;96977.50;4228925;27;5657;-68
2023/09/10 13:32:56;;;;;;;;;;;;;;;27.96;48.75;96973.69;4231392;28;5823;-67
2023/09/10 13:34:59;;;;;;;;;;;;;;;27.96;48.80;96965.53;4232119;28;5711;-67
2023/09/10 13:37:03;;;;;;;;;;;;;;;27.96;48.57;96969.06;4234798;28;5835;-67
2023/09/10 13:39:06;;;;;;;;;;;;;;;27.96;48.64;96969.06;4232311;27;5646;-67
2023/09/10 13:41:09;;;;;;;;;;;;;;;27.97;48.70;96967.94;4232756;27;5777;-64
2023/09/10 13:43:12;;;;;;;;;;;;;;;27.98;48.53;96966.06;4224455;27;5678;-66
2023/09/10 13:45:15;;;;;;;;;;;;;;;27.99;48.49;96962.22;4235308;27;5729;-65
2023/09/10 13:47:19;;;;;;;;;;;;;;;28.01;48.41;96970.88;4215972;27;5815;-64
2023/09/10 13:49:22;;;;;;;;;;;;;;;28.01;48.40;96965.44;4230588;27;5829;-64
2023/09/10 13:51:25;;;;;;;;;;;;;;;28.00;48.50;96963.84;4224564;27;5758;-64
2023/09/10 13:53:28;;;;;;;;;;;;;;;28.01;48.33;96960.00;4236692;27;5805;-65
2023/09/10 13:55:30;;;;;;;;;;;;;;;28.01;48.56;96960.81;4228614;27;5779;-64
2023/09/10 13:57:33;;;;;;;;;;;;;;;28.00;48.49;96952.97;4226456;27;5642;-63
2023/09/10 13:59:36;;;;;;;;;;;;;;;28.01;48.41;96957.28;4228589;27;5733;-68
2023/09/10 14:01:39;;;;;;;;;;;;;;;28.00;48.45;96952.97;4224826;27;5763;-63
2023/09/10 14:03:44;;;;;;;;;;;;;;;28.01;48.47;96954.56;4230221;27;5845;-67
2023/09/10 14:05:50;;;;;;;;;;;;;;;28.00;48.42;96948.34;4227822;27;5635;-66
2023/09/10 14:07:53;;;;;;;;;;;;;;;28.01;48.45;96943.72;4233632;28;6336;-66
2023/09/10 14:09:56;;;;;;;;;;;;;;;28.02;48.54;96939.88;4218616;27;5648;-64
2023/09/10 14:11:59;;;;;;;;;;;;;;;28.03;48.51;96942.28;4235027;27;5767;-66
2023/09/10 14:14:03;;;;;;;;;;;;;;;28.03;48.36;96936.06;4233078;28;5757;-65
2023/09/10 14:16:07;;;;;;;;;;;;;;;28.03;48.42;96941.50;4231164;27;5674;-66
2023/09/10 14:18:10;;;;;;;;;;;;;;;28.03;48.38;96936.84;4241230;27;5676;-66
2023/09/10 14:20:15;;;;;;;;;;;;;;;28.05;48.37;96940.06;4234782;27;5638;-66
2023/09/10 14:22:18;;;;;;;;;;;;;;;28.07;48.36;96939.78;4234970;27;5729;-64
2023/09/10 14:24:22;;;;;;;;;;;;;;;28.07;48.25;96943.28;4240614;27;5674;-65
2023/09/10 14:26:25;;;;;;;;;;;;;;;28.08;48.22;96938.66;4223296;27;6334;-65
2023/09/10 14:28:28;;;;;;;;;;;;;;;28.07;48.28;96942.47;4228990;27;5726;-63
2023/09/10 14:30:31;;;;;;;;;;;;;;;28.08;48.39;96938.66;4216884;27;5810;-71
2023/09/10 14:32:37;;;;;;;;;;;;;;;28.09;48.33;96934.84;4225562;27;5815;-71
2023/09/10 14:34:42;;;;;;;;;;;;;;;28.09;48.25;96930.22;4222665;27;5657;-69
2023/09/10 14:36:47;;;;;;;;;;;;;;;28.11;48.31;96933.44;4220411;27;5798;-69
2023/09/10 14:38:50;;;;;;;;;;;;;;;28.12;48.29;96935.06;4222948;27;5832;-73
2023/09/10 14:40:53;;;;;;;;;;;;;;;28.12;48.39;96928.81;4221455;27;5852;-73
2023/09/10 14:42:55;;;;;;;;;;;;;;;28.12;48.37;96928.81;4222469;27;5949;-72
2023/09/10 14:44:58;;;;;;;;;;;;;;;28.13;48.26;96925.00;4216820;27;5764;-73
2023/09/10 14:47:01;;;;;;;;;;;;;;;28.13;48.37;96925.00;4229298;27;5737;-75
2023/09/10 14:49:04;;;;;;;;;;;;;;;28.13;48.46;96925.00;4217038;27;5816;-74
2023/09/10 14:51:07;;;;;;;;;;;;;;;28.14;48.37;96921.16;4221863;27;5665;-73
2023/09/10 14:53:11;;;;;;;;;;;;;;;28.13;48.52;96923.06;4225031;27;5865;-74
2023/09/10 14:55:15;;;;;;;;;;;;;;;28.13;48.41;96925.00;4216807;27;5782;-75
2023/09/10 14:57:18;;;;;;;;;;;;;;;28.13;48.48;96919.56;4225768;27;5852;-69
2023/09/10 14:59:21;;;;;;;;;;;;;;;28.13;48.37;96908.69;4228742;27;5729;-70
2023/09/10 15:01:24;;;;;;;;;;;;;;;28.14;48.38;96915.72;4224393;27;5816;-69
2023/09/10 15:03:27;;;;;;;;;;;;;;;28.15;48.32;96911.91;4221313;27;5721;-69
2023/09/10 15:05:31;;;;;;;;;;;;;;;28.16;48.32;96907.25;4221018;27;5861;-69
2023/09/10 15:07:33;;;;;;;;;;;;;;;28.16;48.38;96910.78;4220648;27;6400;-69
2023/09/10 15:09:37;;;;;;;;;;;;;;;28.17;48.23;96919.75;4234283;27;5720;-69
2023/09/10 15:11:40;;;;;;;;;;;;;;;28.17;48.21;96917.81;4223721;27;5230;-69
2023/09/10 15:13:43;;;;;;;;;;;;;;;28.17;48.19;96915.09;4226175;27;5646;-70
2023/09/10 15:15:46;;;;;;;;;;;;;;;28.18;48.29;96914.00;4226219;27;5657;-77
2023/09/10 15:17:49;;;;;;;;;;;;;;;28.18;48.03;96910.47;4224710;27;6462;-77
2023/09/10 15:19:52;;;;;;;;;;;;;;;28.18;48.15;96914.00;4227508;27;5634;-78
2023/09/10 15:21:55;;;;;;;;;;;;;;;28.17;48.02;96909.66;4226037;27;5845;-72
2023/09/10 15:23:58;;;;;;;;;;;;;;;28.18;47.94;96905.84;4223111;27;5866;-72
2023/09/10 15:26:02;;;;;;;;;;;;;;;28.19;48.05;96902.00;4217955;27;5775;-72
2023/09/10 15:28:05;;;;;;;;;;;;;;;28.19;47.97;96907.44;4216525;27;5642;-73
2023/09/10 15:30:09;;;;;;;;;;;;;;;28.19;47.91;96902.00;4230647;27;5613;-72
2023/09/10 15:32:12;;;;;;;;;;;;;;;28.20;47.78;96900.09;4223150;27;5813;-72
2023/09/10 15:34:15;;;;;;;;;;;;;;;28.21;47.92;96902.53;4223010;27;5662;-74
2023/09/10 15:36:18;;;;;;;;;;;;;;;28.20;47.57;96900.09;4217338;27;5832;-66
2023/09/10 15:38:21;;;;;;;;;;;;;;;28.20;47.84;96894.66;4219682;27;6447;-66
2023/09/10 15:40:24;;;;;;;;;;;;;;;28.19;47.85;96896.56;4229165;27;5728;-70
2023/09/10 15:42:28;;;;;;;;;;;;;;;28.19;47.62;96896.56;4220539;27;5812;-70
2023/09/10 15:44:33;;;;;;;;;;;;;;;28.19;47.67;96898.50;4223961;27;6467;-71
2023/09/10 15:46:36;;;;;;;;;;;;;;;28.17;47.56;96898.81;4222748;27;5654;-72
2023/09/10 15:48:39;;;;;;;;;;;;;;;28.19;47.52;96893.06;4216686;27;5749;-70
2023/09/10 15:50:42;;;;;;;;;;;;;;;28.21;47.51;96899.81;4221684;27;5733;-69
2023/09/10 15:52:45;;;;;;;;;;;;;;;28.19;47.51;96891.13;4213656;27;5746;-70
2023/09/10 15:54:48;;;;;;;;;;;;;;;28.20;47.65;96895.50;4218186;27;5663;-71
2023/09/10 15:56:51;;;;;;;;;;;;;;;28.21;47.53;96897.09;4223998;27;5798;-71
2023/09/10 15:58:55;;;;;;;;;;;;;;;28.21;47.49;96894.38;4219703;27;5737;-72
2023/09/10 16:00:58;;;;;;;;;;;;;;;28.18;47.42;96889.53;4219873;27;5781;-69
2023/09/10 16:03:01;;;;;;;;;;;;;;;28.21;47.51;96888.94;4230321;27;5200;-70
2023/09/10 16:05:06;;;;;;;;;;;;;;;28.22;47.35;96887.84;4227017;27;5924;-71
2023/09/10 16:07:09;;;;;;;;;;;;;;;28.22;47.41;96878.88;4219802;27;5789;-69
2023/09/10 16:09:12;;;;;;;;;;;;;;;28.22;47.51;96879.69;4223996;27;5646;-80
2023/09/10 16:11:16;;;;;;;;;;;;;;;28.22;47.40;96879.69;4226110;27;5754;-78